createdAt,value
2019-02-04T00:00:00.542Z,17.53
2019-02-04T00:03:43.842Z,14.70
2019-02-04T00:06:47.497Z,15.60
2019-02-04T00:09:50.884Z,16.87
2019-02-04T00:12:54.276Z,15.70
2019-02-04T00:15:57.639Z,18.43
2019-02-04T00:19:01.039Z,15.00
2019-02-04T00:22:44.333Z,15.03
2019-02-04T00:26:07.052Z,14.90
2019-02-04T00:29:10.523Z,16.77
2019-02-04T00:32:13.897Z,17.03
2019-02-04T00:35:17.289Z,15.27
2019-02-04T00:38:20.665Z,18.40
2019-02-04T00:41:24.355Z,15.47
2019-02-04T00:44:27.743Z,16.23
2019-02-04T00:47:31.112Z,15.90
2019-02-04T00:50:34.758Z,15.70
2019-02-04T00:53:38.150Z,17.47
2019-02-04T00:56:41.530Z,15.23
2019-02-04T00:59:44.917Z,14.63
2019-02-04T01:02:48.349Z,15.60
2019-02-04T01:05:51.766Z,15.17
2019-02-04T01:08:55.250Z,15.57
2019-02-04T01:11:58.635Z,17.47
2019-02-04T01:15:02.016Z,14.53
2019-02-04T01:18:05.464Z,15.07
2019-02-04T01:21:10.574Z,18.73
2019-02-04T01:24:13.955Z,17.77
2019-02-04T01:27:17.338Z,14.60
2019-02-04T01:31:02.364Z,16.30
2019-02-04T01:34:05.744Z,17.40
2019-02-04T01:37:10.842Z,17.30
2019-02-04T01:40:54.150Z,14.73
2019-02-04T01:43:57.523Z,14.33
2019-02-04T01:47:00.913Z,16.40
2019-02-04T01:50:44.216Z,19.80
2019-02-04T01:53:47.609Z,16.63
2019-02-04T01:56:50.976Z,15.50
2019-02-04T01:59:54.353Z,20.30
2019-02-04T02:02:57.745Z,17.33
2019-02-04T02:06:20.450Z,19.10
2019-02-04T02:12:38.262Z,16.33
2019-02-04T02:15:41.654Z,16.83
2019-02-04T02:18:45.043Z,18.60
2019-02-04T02:21:50.230Z,17.30
2019-02-04T02:24:53.610Z,18.73
2019-02-04T02:27:56.998Z,16.53
2019-02-04T02:31:00.368Z,15.77
2019-02-04T02:34:03.744Z,15.33
2019-02-04T02:37:07.152Z,16.17
2019-02-04T02:40:50.615Z,17.40
2019-02-04T02:43:54.001Z,16.00
2019-02-04T02:46:57.372Z,16.03
2019-02-04T02:50:00.763Z,19.93
2019-02-04T02:56:33.756Z,15.17
2019-02-04T02:59:38.866Z,21.03
2019-02-04T03:02:42.261Z,14.77
2019-02-04T03:05:45.637Z,16.90
2019-02-04T03:08:50.741Z,15.00
2019-02-04T03:12:13.456Z,17.30
2019-02-04T03:15:16.903Z,16.77
2019-02-04T03:18:20.275Z,17.30
2019-02-04T03:21:25.549Z,14.00
2019-02-04T03:24:28.939Z,15.90
2019-02-04T03:27:32.304Z,16.93
2019-02-04T03:30:37.416Z,16.50
2019-02-04T03:33:40.779Z,16.57
2019-02-04T03:36:44.164Z,22.67
2019-02-04T03:39:47.536Z,19.93
2019-02-04T03:42:50.914Z,17.77
2019-02-04T03:45:54.299Z,16.97
2019-02-04T03:48:57.674Z,18.33
2019-02-04T03:52:01.052Z,18.43
2019-02-04T03:55:44.361Z,19.13
2019-02-04T03:58:47.970Z,19.13
2019-02-04T04:01:51.370Z,17.63
2019-02-04T04:04:54.920Z,18.73
2019-02-04T04:07:58.307Z,16.07
2019-02-04T04:11:01.694Z,17.43
2019-02-04T04:14:05.435Z,18.67
2019-02-04T04:17:08.887Z,18.57
2019-02-04T04:20:52.199Z,18.43
2019-02-04T04:23:55.594Z,19.50
2019-02-04T04:26:58.978Z,16.87
2019-02-04T04:30:24.873Z,17.70
2019-02-04T04:33:29.992Z,18.20
2019-02-04T04:36:33.656Z,17.57
2019-02-04T04:39:56.444Z,20.43
2019-02-04T04:42:59.837Z,16.83
2019-02-04T04:46:03.228Z,18.23
2019-02-04T04:49:06.609Z,19.03
2019-02-04T04:52:09.977Z,20.83
2019-02-04T04:55:55.002Z,18.23
2019-02-04T04:58:58.387Z,18.77
2019-02-04T05:02:01.767Z,22.77
2019-02-04T05:05:45.065Z,18.30
2019-02-04T05:08:48.507Z,18.03
2019-02-04T05:11:51.846Z,19.07
2019-02-04T05:15:15.913Z,19.87
2019-02-04T05:18:19.302Z,19.40
2019-02-04T05:21:22.689Z,16.10
2019-02-04T05:24:45.650Z,18.30
2019-02-04T05:27:49.033Z,20.43
2019-02-04T05:30:52.430Z,22.23
2019-02-04T05:33:55.796Z,20.17
2019-02-04T05:36:59.181Z,21.97
2019-02-04T05:40:02.708Z,20.57
2019-02-04T05:43:06.100Z,19.83
2019-02-04T05:46:09.484Z,22.30
2019-02-04T05:49:12.874Z,20.17
2019-02-04T05:52:16.360Z,19.10
2019-02-04T05:55:59.753Z,24.53
2019-02-04T05:59:03.396Z,22.37
2019-02-04T06:02:09.436Z,20.77
2019-02-04T06:05:51.785Z,23.03
2019-02-04T06:08:55.196Z,20.73
2019-02-04T06:12:00.394Z,21.87
2019-02-04T06:15:43.677Z,23.73
2019-02-04T06:19:06.397Z,21.53
2019-02-04T06:22:09.773Z,23.80
2019-02-04T06:25:13.233Z,24.70
2019-02-04T06:28:16.650Z,20.03
2019-02-04T06:31:20.303Z,26.67
2019-02-04T06:34:23.692Z,23.00
2019-02-04T06:37:27.084Z,20.57
2019-02-04T06:40:30.480Z,22.60
2019-02-04T06:43:33.885Z,23.50
2019-02-04T06:46:37.254Z,24.47
2019-02-04T06:49:40.635Z,23.60
2019-02-04T06:56:27.160Z,23.57
2019-02-04T06:59:30.567Z,22.90
2019-02-04T07:02:33.944Z,28.30
2019-02-04T07:05:43.756Z,27.70
2019-02-04T07:08:42.425Z,25.43
2019-02-04T07:11:45.816Z,22.60
2019-02-04T07:14:49.202Z,23.53
2019-02-04T07:17:52.579Z,25.10
2019-02-04T07:20:56.032Z,22.00
2019-02-04T07:23:59.411Z,20.97
2019-02-04T07:27:02.804Z,24.13
2019-02-04T07:30:46.099Z,22.23
2019-02-04T07:33:49.476Z,21.40
2019-02-04T07:36:54.579Z,22.70
2019-02-04T07:39:57.956Z,22.83
2019-02-04T07:43:01.409Z,22.83
2019-02-04T07:46:06.516Z,22.47
2019-02-04T07:49:09.912Z,23.10
2019-02-04T07:52:13.287Z,23.93
2019-02-04T07:55:18.572Z,21.20
2019-02-04T07:58:21.968Z,24.67
2019-02-04T08:01:25.345Z,20.30
2019-02-04T08:04:28.897Z,20.77
2019-02-04T08:07:32.286Z,22.17
2019-02-04T08:10:35.659Z,20.20
2019-02-04T08:13:41.078Z,25.20
2019-02-04T08:16:44.457Z,18.27
2019-02-04T08:19:47.851Z,18.93
2019-02-04T08:22:51.220Z,18.63
2019-02-04T08:25:54.606Z,17.97
2019-02-04T08:28:58.072Z,21.73
2019-02-04T08:32:01.428Z,16.67
2019-02-04T08:35:44.731Z,20.70
2019-02-04T08:38:48.124Z,17.00
2019-02-04T08:41:51.501Z,17.90
2019-02-04T08:44:55.124Z,17.53
2019-02-04T08:47:58.499Z,23.63
2019-02-04T08:51:01.894Z,22.90
2019-02-04T08:54:05.430Z,19.07
2019-02-04T08:57:09.038Z,16.47
2019-02-04T09:00:31.760Z,17.60
2019-02-04T09:03:35.160Z,21.93
2019-02-04T09:06:38.549Z,22.40
2019-02-04T09:09:41.922Z,21.00
2019-02-04T09:12:45.302Z,23.47
2019-02-04T09:15:50.417Z,20.73
2019-02-04T09:18:53.787Z,19.53
2019-02-04T09:21:57.175Z,23.73
2019-02-04T09:25:02.291Z,20.57
2019-02-04T09:28:05.732Z,20.37
2019-02-04T09:31:09.190Z,22.10
2019-02-04T09:34:12.959Z,21.30
2019-02-04T09:37:16.405Z,19.43
2019-02-04T09:40:59.686Z,17.90
2019-02-04T09:44:03.074Z,19.33
2019-02-04T09:47:06.601Z,20.83
2019-02-04T09:50:49.882Z,19.40
2019-02-04T09:53:53.266Z,16.40
2019-02-04T09:56:56.655Z,19.67
2019-02-04T10:00:00.148Z,19.73
2019-02-04T10:03:45.241Z,19.20
2019-02-04T10:06:48.621Z,22.13
2019-02-04T10:09:52.015Z,18.37
2019-02-04T10:12:55.539Z,17.40
2019-02-04T10:15:59.266Z,18.87
2019-02-04T10:19:02.618Z,19.40
2019-02-04T10:22:06.035Z,19.77
2019-02-04T10:25:49.294Z,17.50
2019-02-04T10:28:52.668Z,18.90
2019-02-04T10:31:56.061Z,18.33
2019-02-04T10:35:01.174Z,18.77
2019-02-04T10:38:44.594Z,20.13
2019-02-04T10:41:50.020Z,17.77
2019-02-04T10:44:53.403Z,19.50
2019-02-04T10:47:56.823Z,18.13
2019-02-04T10:51:01.956Z,15.13
2019-02-04T10:54:45.237Z,15.37
2019-02-04T10:57:48.672Z,16.27
2019-02-04T11:00:52.400Z,18.23
2019-02-04T11:03:55.750Z,18.27
2019-02-04T11:06:59.191Z,16.40
2019-02-04T11:10:02.594Z,16.67
2019-02-04T11:13:45.887Z,16.83
2019-02-04T11:16:49.377Z,18.03
2019-02-04T11:19:52.766Z,14.77
2019-02-04T11:23:15.586Z,16.27
2019-02-04T11:26:18.952Z,15.13
2019-02-04T11:29:22.435Z,17.83
2019-02-04T11:32:25.859Z,16.40
2019-02-04T11:35:29.377Z,16.50
2019-02-04T11:38:32.788Z,14.13
2019-02-04T11:41:36.147Z,13.37
2019-02-04T11:44:39.558Z,13.17
2019-02-04T11:47:42.979Z,12.97
2019-02-04T11:50:46.764Z,17.57
2019-02-04T11:54:09.480Z,13.73
2019-02-04T11:57:12.854Z,13.33
2019-02-04T12:00:56.158Z,12.27
2019-02-04T12:03:59.611Z,11.07
2019-02-04T12:07:03.260Z,14.50
2019-02-04T12:10:46.861Z,14.27
2019-02-04T12:13:50.243Z,10.83
2019-02-04T12:16:53.618Z,12.13
2019-02-04T12:19:57.003Z,14.10
2019-02-04T12:23:00.392Z,13.93
2019-02-04T12:26:23.107Z,13.23
2019-02-04T12:29:26.521Z,10.13
2019-02-04T12:32:29.897Z,12.37
2019-02-04T12:35:33.273Z,11.20
2019-02-04T12:38:36.649Z,11.50
2019-02-04T12:41:40.034Z,11.50
2019-02-04T12:44:43.399Z,11.17
2019-02-04T12:47:46.783Z,11.57
2019-02-04T12:50:50.165Z,9.83
2019-02-04T12:53:53.533Z,9.87
2019-02-04T12:56:56.905Z,7.47
2019-02-04T13:00:00.422Z,4.60
2019-02-04T13:06:33.593Z,7.77
2019-02-04T13:09:36.965Z,5.47
2019-02-04T13:12:40.417Z,4.57
2019-02-04T13:15:43.777Z,4.50
2019-02-04T13:18:47.158Z,5.47
2019-02-04T13:21:50.543Z,6.17
2019-02-04T13:24:53.910Z,3.43
2019-02-04T13:28:37.206Z,6.00
2019-02-04T13:31:40.587Z,6.43
2019-02-04T13:35:04.471Z,5.60
2019-02-04T13:38:07.990Z,6.73
2019-02-04T13:41:11.468Z,4.83
2019-02-04T13:44:16.489Z,5.77
2019-02-04T13:47:19.864Z,5.43
2019-02-04T13:51:03.153Z,6.47
2019-02-04T13:54:06.602Z,6.80
2019-02-04T13:57:10.212Z,4.17
2019-02-04T14:00:55.221Z,4.47
2019-02-04T14:03:58.600Z,5.70
2019-02-04T14:07:01.964Z,6.10
2019-02-04T14:10:46.178Z,5.10
2019-02-04T14:13:50.617Z,4.63
2019-02-04T14:17:13.397Z,6.00
2019-02-04T14:20:56.697Z,5.27
2019-02-04T14:24:19.408Z,8.47
2019-02-04T14:27:22.808Z,5.70
2019-02-04T14:30:45.528Z,5.77
2019-02-04T14:33:48.901Z,6.17
2019-02-04T14:36:52.448Z,3.60
2019-02-04T14:39:55.830Z,4.03
2019-02-04T14:43:39.116Z,5.70
2019-02-04T14:47:22.420Z,4.57
2019-02-04T14:51:04.374Z,4.73
2019-02-04T14:54:46.381Z,3.37
2019-02-04T14:58:28.361Z,5.23
2019-02-04T15:02:10.318Z,3.20
2019-02-04T15:05:53.653Z,5.43
2019-02-04T15:09:35.579Z,4.60
2019-02-04T15:13:17.809Z,5.77
2019-02-04T15:17:01.115Z,4.67
2019-02-04T15:20:44.475Z,3.37
2019-02-04T15:24:26.467Z,3.67
2019-02-04T15:28:09.776Z,5.57
2019-02-04T15:31:53.069Z,4.50
2019-02-04T15:35:36.374Z,5.27
2019-02-04T15:39:18.329Z,5.33
2019-02-04T15:43:00.306Z,3.63
2019-02-04T15:46:42.261Z,4.53
2019-02-04T15:50:24.237Z,5.37
2019-02-04T15:53:27.607Z,4.50
2019-02-04T15:56:50.419Z,3.73
2019-02-04T15:59:54.160Z,3.40
2019-02-04T16:02:57.626Z,3.87
2019-02-04T16:06:00.998Z,7.20
2019-02-04T16:09:44.308Z,5.33
2019-02-04T16:12:48.364Z,5.83
2019-02-04T16:15:51.758Z,6.27
2019-02-04T16:18:55.131Z,5.03
2019-02-04T16:22:00.234Z,5.47
2019-02-04T16:25:04.476Z,4.13
2019-02-04T16:28:07.879Z,5.03
2019-02-04T16:31:11.626Z,5.87
2019-02-04T16:34:15.364Z,6.07
2019-02-04T16:37:18.811Z,6.03
2019-02-04T16:40:23.304Z,8.10
2019-02-04T16:43:26.719Z,6.90
2019-02-04T16:46:30.055Z,8.27
2019-02-04T16:49:33.811Z,8.80
2019-02-04T16:52:37.186Z,6.90
2019-02-04T16:55:40.555Z,8.00
2019-02-04T16:58:44.334Z,7.63
2019-02-04T17:01:47.702Z,10.57
2019-02-04T17:04:51.084Z,8.93
2019-02-04T17:07:54.910Z,9.97
2019-02-04T17:10:58.486Z,10.27
2019-02-04T17:14:01.853Z,9.40
2019-02-04T17:17:05.242Z,8.63
2019-02-04T17:20:20.561Z,7.27
2019-02-04T17:23:23.947Z,8.07
2019-02-04T17:26:27.383Z,14.43
2019-02-04T17:29:30.777Z,8.37
2019-02-04T17:32:34.146Z,7.87
2019-02-04T17:35:37.666Z,8.33
2019-02-04T17:38:41.046Z,9.17
2019-02-04T17:41:44.678Z,8.37
2019-02-04T17:44:48.055Z,8.63
2019-02-04T17:47:52.881Z,10.77
2019-02-04T17:50:56.282Z,8.50
2019-02-04T17:53:59.666Z,10.17
2019-02-04T17:57:05.966Z,9.67
2019-02-04T18:00:16.099Z,12.37
2019-02-04T18:03:19.480Z,7.63
2019-02-04T18:06:22.871Z,9.80
2019-02-04T18:09:26.282Z,13.10
2019-02-04T18:12:29.725Z,12.43
2019-02-04T18:15:33.118Z,8.33
2019-02-04T18:18:36.565Z,16.10
2019-02-04T18:21:39.947Z,13.67
2019-02-04T18:24:43.323Z,10.47
2019-02-04T18:27:46.934Z,13.50
2019-02-04T18:30:50.763Z,10.83
2019-02-04T18:33:54.147Z,11.57
2019-02-04T18:36:57.565Z,10.20
2019-02-04T18:40:00.926Z,10.03
2019-02-04T18:43:04.951Z,10.70
2019-02-04T18:46:08.324Z,13.10
2019-02-04T18:49:12.116Z,10.17
2019-02-04T18:52:15.575Z,12.63
2019-02-04T18:55:30.797Z,12.30
2019-02-04T18:58:34.684Z,10.43
2019-02-04T19:01:38.087Z,12.17
2019-02-04T19:04:41.471Z,10.23
2019-02-04T19:07:45.486Z,10.80
2019-02-04T19:10:48.868Z,12.07
2019-02-04T19:13:52.243Z,13.10
2019-02-04T19:16:55.690Z,9.40
2019-02-04T19:19:59.106Z,9.83
2019-02-04T19:23:02.485Z,12.37
2019-02-04T19:26:06.732Z,11.60
2019-02-04T19:29:10.089Z,13.50
2019-02-04T19:32:14.489Z,10.83
2019-02-04T19:35:17.855Z,10.70
2019-02-04T19:38:22.279Z,14.93
2019-02-04T19:41:25.994Z,12.30
2019-02-04T19:44:29.388Z,12.50
2019-02-04T19:47:32.822Z,13.63
2019-02-04T19:50:38.140Z,10.37
2019-02-04T19:53:45.967Z,12.80
2019-02-04T19:56:50.311Z,14.17
2019-02-04T19:59:55.903Z,11.13
2019-02-04T20:03:01.900Z,12.93
2019-02-04T20:06:06.018Z,11.33
2019-02-04T20:09:10.805Z,11.47
2019-02-04T20:12:14.287Z,10.93
2019-02-04T20:15:21.445Z,12.00
2019-02-04T20:18:24.826Z,12.87
2019-02-04T20:21:35.133Z,11.37
2019-02-04T20:24:38.522Z,12.77
2019-02-04T20:27:41.912Z,10.20
2019-02-04T20:30:46.655Z,12.17
2019-02-04T20:33:50.117Z,11.93
2019-02-04T20:36:53.519Z,10.80
2019-02-04T20:39:56.889Z,11.07
2019-02-04T20:43:00.270Z,13.90
2019-02-04T20:46:03.718Z,12.40
2019-02-04T20:49:07.116Z,12.77
2019-02-04T20:52:10.496Z,11.03
2019-02-04T20:55:14.014Z,10.33
2019-02-04T20:58:17.470Z,10.20
2019-02-04T21:01:20.861Z,10.03
2019-02-04T21:04:24.270Z,13.70
2019-02-04T21:07:27.646Z,12.70
2019-02-04T21:10:31.410Z,12.27
2019-02-04T21:13:34.861Z,12.03
2019-02-04T21:16:38.254Z,13.57
2019-02-04T21:19:44.128Z,9.93
2019-02-04T21:22:46.736Z,15.40
2019-02-04T21:25:50.104Z,10.97
2019-02-04T21:28:53.487Z,9.73
2019-02-04T21:31:56.860Z,10.57
2019-02-04T21:35:00.326Z,12.37
2019-02-04T21:38:04.143Z,11.33
2019-02-04T21:41:07.596Z,9.00
2019-02-04T21:44:10.995Z,12.13
2019-02-04T21:47:14.372Z,11.90
2019-02-04T21:50:19.877Z,11.70
2019-02-04T21:53:23.329Z,10.33
2019-02-04T21:56:26.711Z,12.80
2019-02-04T21:59:32.020Z,10.90
2019-02-04T22:02:35.386Z,9.97
2019-02-04T22:05:38.853Z,10.33
2019-02-04T22:08:42.222Z,13.73
2019-02-04T22:11:45.622Z,9.03
2019-02-04T22:14:49.374Z,10.43
2019-02-04T22:17:53.197Z,9.13
2019-02-04T22:20:56.574Z,9.60
2019-02-04T22:23:59.951Z,10.80
2019-02-04T22:27:03.342Z,10.27
2019-02-04T22:30:27.488Z,10.87
2019-02-04T22:33:50.202Z,9.87
2019-02-04T22:36:53.670Z,9.50
2019-02-04T22:39:57.041Z,9.47
2019-02-04T22:43:00.433Z,10.77
2019-02-04T22:46:03.973Z,10.00
2019-02-04T22:49:07.355Z,12.13
2019-02-04T22:52:10.801Z,13.27
2019-02-04T22:55:14.409Z,9.03
2019-02-04T22:58:17.807Z,9.70
2019-02-04T23:01:42.860Z,10.43
2019-02-04T23:04:46.248Z,11.20
2019-02-04T23:07:49.612Z,9.67
2019-02-04T23:10:53.132Z,8.80
2019-02-04T23:13:56.503Z,8.53
2019-02-04T23:16:59.956Z,9.80
2019-02-04T23:23:32.796Z,9.77
2019-02-04T23:26:36.176Z,9.63
2019-02-04T23:29:59.143Z,10.73
2019-02-04T23:33:02.588Z,9.27
2019-02-04T23:36:06.206Z,10.90
2019-02-04T23:39:09.917Z,11.93
2019-02-04T23:42:13.299Z,14.23
2019-02-04T23:45:36.340Z,11.10
2019-02-04T23:48:39.722Z,10.40
2019-02-04T23:51:43.108Z,10.13
2019-02-04T23:54:46.483Z,13.47
2019-02-04T23:57:49.868Z,11.67
